Startpagina
METAR-TAF:

METAR-TAF

Vliegvelden :

Brunei International Airport

Brunei, Brunei

breedte: 04-56N, lengte: 114-56E, hoogte: 22 m

Actueel weer

Dit bericht is 20 minuten geleden gemaakt, om 13:30 UTC
Wind 1 kt uit het zuidzuidwesten
Temperatuur 26°C
Vochtigheid 89%
Druk 1010 hPa
Zicht 10 km of meer
Weinig wolken op 1500 ft
Gebroken wolken op 30000 ft

METAR: WBSB 231330Z 20001KT 9999 FEW015 BKN300 26/24 Q1010 NOSIG

Tijdstip: 21:50 (13:50 UTC)

Verwachting

Dit bericht is 3 uur en het 0 minuten geleden gemaakt, om 10:50 UTC
Verwachting geldig van 23 om 12 UTC tot 24 om 18 UTC
Wind 3 kt uit het zuidoosten
Zicht 10 km of meer
Weinig wolken op 1400 ft
Wijzigt naar
van 24 om 03 UTC tot 24 om 05 UTC
Wind 10 kt uit het noordwesten
Verspreide wolken op 1500 ft
Weinig wolken op 1600 ft, Cumulonimbus.
Tijdelijke
van 24 om 04 UTC tot 24 om 08 UTC
Zicht: 4000 m
onweer, regen

TAF: WBSB 231050Z 2312/2418 14003KT 9999 FEW014 BECMG 2403/2405 31010KT SCT015 FEW016CB TEMPO 2404/2408 4000 TSRA

Waarnemingen en weersverwachtingen van meer dan 4000 vliegvelden (METAR en TAF).

De beschikbare stations zijn de gele en rode punten op de kaart.

Ga met uw muis naar het station om de naam te zien.

Klik dan om waarnemingen en weersverwachtingen te zien.

kaart wijzigen: klik op de groene knoppen met een zwart kruis om in te zoomen, op de groene knop met een streepje om uit te zoomen of op de groene pijlen voor aangrenzende kaarten.


METAR-TAF: